Time;durP1;ratioP1;P1;durP2;ratioP2;P2;SDS_P1;SDS_P2;PMS_P1;PMS_P2;Temp;Humidity;BMP_temperature;BMP_pressure;BME280_temperature;BME280_humidity;BME280_pressure;Samples;Min_cycle;Max_cycle;Signal;HPM_P1;HPM_P2
2022/10/11 00:00:15;;;;;;;17.20;13.95;;;10.90;99.90;;;;;;5016773;28;20017;-59
2022/10/11 00:02:43;;;;;;;15.93;14.43;;;10.90;99.90;;;;;;5015405;28;20032;-59
2022/10/11 00:05:09;;;;;;;21.00;15.05;;;10.90;99.90;;;;;;5018444;28;20052;-59
2022/10/11 00:07:36;;;;;;;20.70;12.82;;;10.90;99.90;;;;;;5014425;28;20045;-59
2022/10/11 00:10:03;;;;;;;16.33;14.20;;;10.90;99.90;;;;;;5019058;28;20097;-59
2022/10/11 00:12:29;;;;;;;14.70;13.15;;;11.00;99.90;;;;;;5018204;28;20022;-58
2022/10/11 00:14:55;;;;;;;14.77;13.27;;;11.00;99.90;;;;;;5014343;28;20029;-59
2022/10/11 00:17:20;;;;;;;21.73;13.48;;;11.00;99.90;;;;;;5015239;28;20042;-59
2022/10/11 00:19:46;;;;;;;16.52;13.63;;;11.00;99.90;;;;;;5018338;28;20039;-60
2022/10/11 00:22:11;;;;;;;19.30;14.45;;;11.00;99.90;;;;;;5017453;28;20107;-59
2022/10/11 00:24:37;;;;;;;15.25;13.73;;;11.10;99.90;;;;;;5018729;28;20041;-60
2022/10/11 00:27:03;;;;;;;17.45;15.70;;;11.10;99.90;;;;;;5018067;28;20398;-59
2022/10/11 00:29:28;;;;;;;16.08;13.48;;;11.10;99.90;;;;;;5021545;28;20087;-59
2022/10/11 00:31:54;;;;;;;15.55;13.27;;;11.10;99.90;;;;;;5015848;28;20061;-58
2022/10/11 00:34:20;;;;;;;16.33;14.60;;;11.10;99.90;;;;;;5017864;28;20022;-59
2022/10/11 00:36:45;;;;;;;22.50;14.32;;;11.10;99.90;;;;;;5020485;28;20030;-60
2022/10/11 00:39:11;;;;;;;20.17;14.25;;;11.20;99.90;;;;;;5017372;28;20022;-59
2022/10/11 00:41:37;;;;;;;15.45;13.15;;;11.20;99.90;;;;;;5018561;28;20164;-59
2022/10/11 00:44:15;;;;;;;14.07;12.68;;;11.20;99.90;;;;;;5014925;28;20030;-59
2022/10/11 00:46:48;;;;;;;16.50;13.45;;;11.20;99.90;;;;;;5014496;28;20036;-59
2022/10/11 00:49:23;;;;;;;18.50;12.57;;;11.30;99.90;;;;;;5017751;28;20032;-60
2022/10/11 00:51:57;;;;;;;13.93;12.38;;;11.30;99.90;;;;;;5017121;28;20514;-59
2022/10/11 00:54:26;;;;;;;17.63;15.32;;;11.30;99.90;;;;;;5016330;28;20530;-58
2022/10/11 00:57:05;;;;;;;18.25;15.63;;;11.30;99.90;;;;;;5013754;28;20042;-60
2022/10/11 00:59:36;;;;;;;17.30;15.52;;;11.30;99.90;;;;;;5015044;28;20025;-60
2022/10/11 01:02:03;;;;;;;16.05;14.60;;;11.30;99.90;;;;;;5020474;28;20017;-59
2022/10/11 01:04:29;;;;;;;21.00;15.45;;;11.30;99.90;;;;;;5018905;28;20078;-60
2022/10/11 01:06:56;;;;;;;22.33;15.07;;;11.30;99.90;;;;;;5016596;28;20545;-60
2022/10/11 01:09:22;;;;;;;15.45;14.00;;;11.30;99.90;;;;;;5015450;28;20034;-60
2022/10/11 01:11:50;;;;;;;16.73;13.30;;;11.30;99.90;;;;;;5013574;28;20045;-60
2022/10/11 01:14:37;;;;;;;14.18;12.73;;;11.40;99.90;;;;;;5015404;28;20037;-60
2022/10/11 01:17:13;;;;;;;16.60;13.25;;;11.40;99.90;;;;;;5016986;28;20126;-60
2022/10/11 01:19:57;;;;;;;19.88;12.80;;;11.40;99.90;;;;;;5014824;28;20148;-60
2022/10/11 01:22:47;;;;;;;23.13;11.98;;;11.40;99.90;;;;;;5018260;28;20524;-60
2022/10/11 01:25:21;;;;;;;15.98;11.57;;;11.40;99.90;;;;;;5020794;28;20024;-60
2022/10/11 01:28:05;;;;;;;15.82;12.73;;;11.50;99.90;;;;;;5016058;28;20026;-59
2022/10/11 01:30:33;;;;;;;13.13;11.65;;;11.50;99.90;;;;;;5015243;28;20030;-60
2022/10/11 01:33:05;;;;;;;16.30;12.27;;;11.50;99.90;;;;;;5014750;28;20496;-59
2022/10/11 01:35:44;;;;;;;14.27;12.95;;;11.50;99.90;;;;;;5014258;28;20040;-59
2022/10/11 01:38:20;;;;;;;17.88;12.55;;;11.50;99.90;;;;;;5017189;28;20092;-60
2022/10/11 01:41:07;;;;;;;15.15;13.68;;;11.60;99.90;;;;;;5023831;28;20627;-60
2022/10/11 01:43:34;;;;;;;14.18;12.65;;;11.60;99.90;;;;;;5018258;28;20033;-60
2022/10/11 01:46:01;;;;;;;21.23;13.25;;;11.60;99.90;;;;;;5016780;28;20022;-58
2022/10/11 01:48:27;;;;;;;15.32;12.77;;;11.60;99.90;;;;;;5019329;28;20103;-59
2022/10/11 01:50:56;;;;;;;15.10;12.02;;;11.70;99.90;;;;;;5020388;28;20037;-59
2022/10/11 01:53:33;;;;;;;14.10;12.65;;;11.70;99.90;;;;;;5017465;28;20041;-59
2022/10/11 01:56:23;;;;;;;15.32;11.65;;;11.60;99.90;;;;;;5018737;28;20124;-58
2022/10/11 01:59:28;;;;;;;12.77;11.50;;;11.60;99.90;;;;;;5012096;28;20061;-59
2022/10/11 02:02:03;;;;;;;18.70;10.60;;;11.60;99.90;;;;;;4993524;28;20119;-59
2022/10/11 02:04:37;;;;;;;15.30;11.85;;;11.60;99.90;;;;;;5018088;28;20060;-59
2022/10/11 02:07:09;;;;;;;14.10;11.27;;;11.60;99.90;;;;;;5016095;28;20022;-59
2022/10/11 02:09:51;;;;;;;17.50;11.95;;;11.60;99.90;;;;;;5018806;28;20018;-58
2022/10/11 02:12:24;;;;;;;13.35;11.98;;;11.60;99.90;;;;;;5017483;28;20029;-59
2022/10/11 02:14:52;;;;;;;16.05;13.38;;;11.60;99.90;;;;;;5016353;28;20026;-59
2022/10/11 02:17:24;;;;;;;20.35;12.10;;;11.60;99.90;;;;;;5016924;28;20124;-59
2022/10/11 02:19:51;;;;;;;;;;;11.60;99.90;;;;;;5017794;28;20045;-59
2022/10/11 02:22:21;;;;;;;13.73;12.30;;;11.60;99.90;;;;;;5015253;28;19944;-59
2022/10/11 02:24:51;;;;;;;15.43;12.05;;;11.70;99.90;;;;;;5015689;28;20041;-58
2022/10/11 02:27:21;;;;;;;17.00;12.65;;;11.70;99.90;;;;;;5020360;28;20096;-59
2022/10/11 02:29:48;;;;;;;12.90;11.70;;;11.70;99.90;;;;;;5018450;28;20517;-59
2022/10/11 02:32:16;;;;;;;14.43;12.10;;;11.70;99.90;;;;;;5022077;28;20117;-59
2022/10/11 02:34:57;;;;;;;11.55;10.40;;;11.70;99.90;;;;;;5020162;28;20026;-59
2022/10/11 02:37:26;;;;;;;15.35;11.40;;;11.70;99.90;;;;;;5017836;28;20026;-59
2022/10/11 02:40:13;;;;;;;13.05;11.85;;;11.60;99.90;;;;;;5017892;28;20029;-59
2022/10/11 02:42:58;;;;;;;13.77;11.45;;;11.60;99.90;;;;;;5024961;28;20036;-59
2022/10/11 02:45:50;;;;;;;17.70;12.38;;;11.60;99.90;;;;;;5018218;28;20029;-59
2022/10/11 02:48:16;;;;;;;12.98;11.77;;;11.60;99.90;;;;;;5005421;28;20037;-59
2022/10/11 02:50:42;;;;;;;12.68;11.68;;;11.60;99.90;;;;;;5015713;28;20041;-59
2022/10/11 02:53:08;;;;;;;13.82;11.10;;;11.60;99.90;;;;;;5018489;28;20030;-59
2022/10/11 02:55:34;;;;;;;14.15;12.07;;;11.60;99.90;;;;;;5018591;28;20120;-58
2022/10/11 02:58:00;;;;;;;14.38;12.85;;;11.50;99.90;;;;;;5021644;28;20041;-58
2022/10/11 03:00:26;;;;;;;15.43;11.70;;;11.60;99.90;;;;;;5019013;28;20034;-59
2022/10/11 03:02:52;;;;;;;19.38;12.45;;;11.60;99.90;;;;;;5018393;28;20100;-59
2022/10/11 03:05:18;;;;;;;13.90;12.55;;;11.60;99.90;;;;;;5018268;28;20076;-59
2022/10/11 03:07:43;;;;;;;16.70;12.50;;;11.60;99.90;;;;;;5017126;28;20389;-59
2022/10/11 03:10:09;;;;;;;17.75;13.27;;;11.60;99.90;;;;;;5017533;28;20014;-59
2022/10/11 03:12:35;;;;;;;20.02;13.15;;;11.60;99.90;;;;;;5013579;28;20022;-59
2022/10/11 03:15:01;;;;;;;13.88;12.32;;;11.60;99.90;;;;;;5016441;28;20113;-59
2022/10/11 03:17:27;;;;;;;18.92;12.73;;;11.60;99.90;;;;;;5017760;28;20037;-59
2022/10/11 03:19:53;;;;;;;15.73;13.52;;;11.60;99.90;;;;;;5018394;28;20033;-59
2022/10/11 03:22:19;;;;;;;14.48;13.15;;;11.60;99.90;;;;;;5015820;28;20486;-59
2022/10/11 03:24:45;;;;;;;18.98;12.60;;;11.60;99.90;;;;;;5014238;28;20048;-59
2022/10/11 03:27:10;;;;;;;14.77;11.80;;;11.60;99.90;;;;;;5019805;28;20041;-59
2022/10/11 03:29:36;;;;;;;16.05;12.07;;;11.60;99.90;;;;;;5018879;28;20038;-59
2022/10/11 03:32:02;;;;;;;18.50;11.77;;;11.60;99.90;;;;;;5015956;28;20115;-60
2022/10/11 03:34:28;;;;;;;14.65;13.15;;;11.60;99.90;;;;;;5015698;28;20125;-59
2022/10/11 03:36:53;;;;;;;14.00;12.40;;;11.60;99.90;;;;;;5018265;28;20595;-60
2022/10/11 03:39:19;;;;;;;16.40;12.32;;;11.70;99.90;;;;;;5015995;28;20025;-59
2022/10/11 03:41:45;;;;;;;14.20;12.90;;;11.70;99.90;;;;;;5017428;28;20119;-60
2022/10/11 03:44:11;;;;;;;17.23;12.75;;;11.70;99.90;;;;;;5019608;28;20021;-60
2022/10/11 03:46:36;;;;;;;21.00;15.05;;;11.70;99.90;;;;;;5016508;28;20049;-59
2022/10/11 03:49:02;;;;;;;17.30;14.18;;;11.70;99.90;;;;;;5017936;28;20044;-59
2022/10/11 03:51:28;;;;;;;15.13;13.00;;;11.70;99.90;;;;;;5018785;28;20032;-60
2022/10/11 03:53:53;;;;;;;15.30;13.70;;;11.70;99.90;;;;;;5017840;28;20030;-59
2022/10/11 03:56:19;;;;;;;17.48;13.18;;;11.70;99.90;;;;;;5015720;28;20266;-60
2022/10/11 03:58:45;;;;;;;14.48;13.23;;;11.70;99.90;;;;;;5019674;28;20560;-59
2022/10/11 04:01:10;;;;;;;15.60;13.38;;;11.70;99.90;;;;;;5018206;28;20018;-59
2022/10/11 04:03:36;;;;;;;29.65;13.98;;;11.70;99.90;;;;;;5016505;28;20088;-59
2022/10/11 04:06:02;;;;;;;15.00;12.60;;;11.70;99.90;;;;;;5016729;28;20382;-60
2022/10/11 04:08:27;;;;;;;14.80;13.20;;;11.70;99.90;;;;;;5017325;28;20440;-58
2022/10/11 04:10:53;;;;;;;15.15;12.80;;;11.70;99.90;;;;;;5017111;28;20873;-59
2022/10/11 04:13:19;;;;;;;14.18;12.82;;;11.70;99.90;;;;;;5019171;28;20588;-59
2022/10/11 04:15:46;;;;;;;17.02;11.75;;;11.70;99.90;;;;;;5020500;28;20026;-59
2022/10/11 04:18:11;;;;;;;13.82;12.38;;;11.70;99.90;;;;;;5015305;28;20018;-59
2022/10/11 04:20:37;;;;;;;15.10;12.35;;;11.70;99.90;;;;;;5018068;28;20496;-60
2022/10/11 04:23:03;;;;;;;13.38;11.98;;;11.70;99.90;;;;;;5016465;28;20113;-60
2022/10/11 04:25:28;;;;;;;18.45;12.82;;;11.70;99.90;;;;;;5018834;28;20026;-59
2022/10/11 04:27:54;;;;;;;21.05;18.73;;;11.70;99.90;;;;;;5017965;28;20617;-59
2022/10/11 04:30:20;;;;;;;23.08;15.07;;;11.60;99.90;;;;;;5017670;28;20080;-58
2022/10/11 04:32:46;;;;;;;15.63;14.07;;;11.70;99.90;;;;;;5015644;28;20489;-59
2022/10/11 04:35:12;;;;;;;16.70;14.75;;;11.70;99.90;;;;;;5017380;28;20049;-59
2022/10/11 04:37:37;;;;;;;19.88;13.95;;;11.70;99.90;;;;;;5012128;28;20029;-59
2022/10/11 04:40:06;;;;;;;21.77;14.60;;;11.70;99.90;;;;;;5015927;28;20022;-59
2022/10/11 04:42:32;;;;;;;13.60;12.07;;;11.70;99.90;;;;;;5018604;28;20028;-59
2022/10/11 04:44:57;;;;;;;16.60;13.32;;;11.70;99.90;;;;;;5019842;28;20037;-59
2022/10/11 04:47:23;;;;;;;15.85;12.75;;;11.70;99.90;;;;;;5016382;28;20030;-59
2022/10/11 04:49:48;;;;;;;13.70;11.73;;;11.70;99.90;;;;;;5014262;28;20910;-59
2022/10/11 04:52:14;;;;;;;15.98;12.93;;;11.70;99.90;;;;;;5014823;28;20057;-59
2022/10/11 04:54:40;;;;;;;14.35;12.73;;;11.70;99.90;;;;;;5014602;28;20030;-59
2022/10/11 04:57:05;;;;;;;15.80;14.30;;;11.70;99.90;;;;;;5017017;28;20099;-59
2022/10/11 04:59:31;;;;;;;18.50;13.02;;;11.70;99.90;;;;;;5021727;28;20026;-58
2022/10/11 05:01:57;;;;;;;15.13;13.70;;;11.70;99.90;;;;;;5023309;28;20464;-59
2022/10/11 05:04:22;;;;;;;14.90;13.38;;;11.70;99.90;;;;;;5024017;28;20036;-59
2022/10/11 05:06:48;;;;;;;16.33;14.18;;;11.70;99.90;;;;;;5018616;28;20030;-59
2022/10/11 05:09:14;;;;;;;15.38;13.25;;;11.70;99.90;;;;;;5020869;28;20061;-59
2022/10/11 05:11:40;;;;;;;15.15;13.63;;;11.70;99.90;;;;;;5023594;28;20026;-58
2022/10/11 05:14:05;;;;;;;22.42;13.68;;;11.70;99.90;;;;;;5018788;28;20624;-60
2022/10/11 05:16:31;;;;;;;17.25;13.57;;;11.70;99.90;;;;;;5019161;28;20478;-59
2022/10/11 05:18:56;;;;;;;22.02;14.30;;;11.70;99.90;;;;;;5019359;28;20450;-59
2022/10/11 05:21:25;;;;;;;19.02;13.68;;;11.80;99.90;;;;;;5021960;28;20036;-59
2022/10/11 05:23:52;;;;;;;13.88;12.52;;;11.80;99.90;;;;;;5024738;28;20025;-59
2022/10/11 05:26:19;;;;;;;24.38;14.43;;;11.80;99.90;;;;;;5020601;28;20072;-59
2022/10/11 05:28:45;;;;;;;16.52;13.43;;;11.80;99.90;;;;;;5016867;28;20113;-59
2022/10/11 05:31:11;;;;;;;18.90;14.95;;;11.80;99.90;;;;;;5017430;28;20090;-59
2022/10/11 05:33:37;;;;;;;21.08;13.75;;;11.80;99.90;;;;;;5020567;28;20034;-59
2022/10/11 05:36:04;;;;;;;18.60;16.27;;;11.80;99.90;;;;;;5019672;28;20449;-60
2022/10/11 05:38:30;;;;;;;20.88;15.48;;;11.80;99.90;;;;;;5018549;28;20072;-60
2022/10/11 05:40:59;;;;;;;21.90;16.08;;;11.80;99.90;;;;;;5019477;28;20042;-59
2022/10/11 05:43:25;;;;;;;18.83;15.68;;;11.80;99.90;;;;;;5020039;28;20025;-59
2022/10/11 05:45:51;;;;;;;17.70;14.93;;;11.80;99.90;;;;;;5021275;28;20040;-60
2022/10/11 05:48:16;;;;;;;28.80;16.85;;;11.80;99.90;;;;;;5021206;28;20041;-60
2022/10/11 05:50:42;;;;;;;20.02;17.05;;;11.80;99.90;;;;;;5017895;28;20053;-59
2022/10/11 05:53:08;;;;;;;18.13;15.68;;;11.80;99.90;;;;;;5021527;28;20041;-59
2022/10/11 05:55:39;;;;;;;19.95;14.65;;;11.80;99.90;;;;;;5018028;28;20026;-59
2022/10/11 05:58:05;;;;;;;15.07;13.55;;;11.80;99.90;;;;;;5017429;28;20509;-59
2022/10/11 06:00:34;;;;;;;16.42;12.52;;;11.90;99.90;;;;;;5015580;28;20030;-60
2022/10/11 06:03:00;;;;;;;16.35;13.63;;;11.90;99.90;;;;;;5017195;28;20037;-58
2022/10/11 06:05:25;;;;;;;14.13;12.65;;;11.90;99.90;;;;;;5019420;28;20036;-59
2022/10/11 06:07:51;;;;;;;19.60;12.80;;;12.00;99.90;;;;;;5014827;28;20075;-60
2022/10/11 06:10:16;;;;;;;19.13;14.55;;;12.00;99.90;;;;;;5024282;28;20071;-60
2022/10/11 06:12:42;;;;;;;17.63;14.07;;;12.00;99.90;;;;;;5019442;28;20058;-60
2022/10/11 06:15:09;;;;;;;18.45;13.18;;;12.00;99.90;;;;;;5018796;28;20033;-59
2022/10/11 06:17:35;;;;;;;16.77;13.55;;;12.10;99.90;;;;;;5016538;28;20041;-60
2022/10/11 06:20:01;;;;;;;18.52;13.68;;;12.10;99.90;;;;;;5015627;28;20026;-60
2022/10/11 06:22:26;;;;;;;15.45;13.90;;;12.20;99.90;;;;;;5019918;28;20036;-60
2022/10/11 06:24:52;;;;;;;17.45;14.90;;;12.20;99.90;;;;;;5020402;28;20046;-60
2022/10/11 06:27:18;;;;;;;17.08;13.75;;;12.30;99.90;;;;;;5017504;28;20037;-59
2022/10/11 06:29:43;;;;;;;16.38;13.43;;;12.30;99.90;;;;;;5017530;28;20026;-60
2022/10/11 06:32:09;;;;;;;19.63;12.65;;;12.40;99.90;;;;;;5018373;28;20053;-60
2022/10/11 06:34:34;;;;;;;15.07;12.27;;;12.40;99.90;;;;;;5014754;28;20432;-59
2022/10/11 06:37:00;;;;;;;16.48;12.60;;;12.50;99.90;;;;;;5021149;28;20483;-59
2022/10/11 06:39:26;;;;;;;22.05;11.82;;;12.50;99.90;;;;;;5019138;28;20032;-59
2022/10/11 06:41:51;;;;;;;13.93;11.43;;;12.60;99.90;;;;;;5019288;28;20094;-58
2022/10/11 06:44:17;;;;;;;19.83;11.90;;;12.60;99.90;;;;;;5018058;28;20873;-60
2022/10/11 06:46:43;;;;;;;20.45;11.48;;;12.60;99.90;;;;;;5016017;28;20042;-60
2022/10/11 06:49:08;;;;;;;22.17;11.82;;;12.60;99.90;;;;;;5017642;28;20784;-60
2022/10/11 06:51:34;;;;;;;19.70;12.20;;;12.60;99.90;;;;;;5017201;28;20030;-59
2022/10/11 06:54:00;;;;;;;21.98;11.88;;;12.70;99.90;;;;;;5018587;28;20021;-58
2022/10/11 06:56:28;;;;;;;24.52;11.65;;;12.70;99.90;;;;;;5016530;28;20034;-59
2022/10/11 06:58:56;;;;;;;24.85;11.10;;;12.80;99.90;;;;;;5014826;28;20088;-58
2022/10/11 07:01:22;;;;;;;24.95;11.27;;;12.90;99.90;;;;;;5019137;28;20580;-59
2022/10/11 07:03:50;;;;;;;17.75;9.75;;;12.90;99.90;;;;;;5022982;28;20530;-58
2022/10/11 07:06:21;;;;;;;16.83;10.00;;;13.00;99.90;;;;;;5014693;28;20224;-59
2022/10/11 07:08:47;;;;;;;20.05;10.35;;;13.00;99.90;;;;;;5013243;28;20030;-59
2022/10/11 07:11:18;;;;;;;13.95;9.27;;;13.00;99.90;;;;;;5015271;28;20710;-59
2022/10/11 07:13:48;;;;;;;;;;;13.10;99.90;;;;;;5021967;28;20022;-59
2022/10/11 07:16:14;;;;;;;14.68;9.10;;;13.10;99.90;;;;;;5019770;28;19920;-60
2022/10/11 07:18:40;;;;;;;21.45;9.15;;;13.10;99.90;;;;;;5018148;28;20600;-61
2022/10/11 07:21:09;;;;;;;24.45;9.40;;;13.10;99.90;;;;;;5015006;28;20025;-59
2022/10/11 07:23:35;;;;;;;25.48;9.80;;;13.10;99.90;;;;;;5016560;28;20029;-59
2022/10/11 07:26:01;;;;;;;23.27;9.38;;;13.10;99.90;;;;;;5018084;28;20025;-57
2022/10/11 07:28:29;;;;;;;16.55;7.78;;;13.10;99.90;;;;;;5016811;28;20223;-60
2022/10/11 07:30:55;;;;;;;11.40;7.00;;;13.10;99.90;;;;;;5014942;28;20105;-59
2022/10/11 07:33:21;;;;;;;12.32;6.30;;;13.10;99.90;;;;;;5017707;28;20022;-59
2022/10/11 07:35:48;;;;;;;11.27;5.40;;;13.20;99.90;;;;;;5014424;28;20498;-59
2022/10/11 07:38:14;;;;;;;6.70;6.03;;;13.30;99.90;;;;;;5018785;28;20159;-59
2022/10/11 07:40:45;;;;;;;10.32;5.78;;;13.30;99.90;;;;;;5018131;28;20056;-59
2022/10/11 07:43:12;;;;;;;9.80;5.82;;;13.40;99.90;;;;;;5016910;28;20028;-59
2022/10/11 07:45:39;;;;;;;8.07;5.40;;;13.40;99.90;;;;;;5018807;28;20013;-59
2022/10/11 07:48:05;;;;;;;20.23;6.32;;;13.40;99.90;;;;;;5015922;28;20033;-59
2022/10/11 07:50:31;;;;;;;11.15;6.13;;;13.50;99.90;;;;;;5017505;28;20601;-60
2022/10/11 07:52:56;;;;;;;10.00;6.75;;;13.50;99.90;;;;;;5015334;28;20704;-60
2022/10/11 07:55:22;;;;;;;9.32;5.57;;;13.40;99.90;;;;;;5014555;28;20077;-59
2022/10/11 07:57:47;;;;;;;8.88;6.05;;;13.40;99.90;;;;;;5014966;28;20378;-59
2022/10/11 08:00:13;;;;;;;13.95;6.22;;;13.30;99.90;;;;;;5017266;28;20038;-60
2022/10/11 08:02:39;;;;;;;10.50;6.13;;;13.30;99.90;;;;;;5017054;28;20032;-59
2022/10/11 08:05:04;;;;;;;10.05;5.82;;;13.30;99.90;;;;;;5015106;28;20126;-59
2022/10/11 08:07:30;;;;;;;14.98;6.30;;;13.40;99.90;;;;;;5019753;28;20105;-59
2022/10/11 08:09:56;;;;;;;12.63;6.22;;;13.40;99.90;;;;;;5012476;28;20071;-59
2022/10/11 08:12:22;;;;;;;19.63;6.97;;;13.40;99.90;;;;;;5014790;28;20129;-59
2022/10/11 08:14:48;;;;;;;7.18;6.00;;;13.40;99.90;;;;;;5017024;28;20183;-60
2022/10/11 08:17:13;;;;;;;14.27;6.72;;;13.40;99.90;;;;;;5012662;28;20052;-59
2022/10/11 08:19:39;;;;;;;6.10;5.50;;;13.40;99.90;;;;;;5015022;28;20124;-59
2022/10/11 08:22:06;;;;;;;13.23;5.75;;;13.50;99.90;;;;;;5016520;28;20021;-59
2022/10/11 08:24:31;;;;;;;9.40;5.28;;;13.50;99.90;;;;;;5017082;28;20032;-61
2022/10/11 08:26:57;;;;;;;11.85;5.68;;;13.60;99.90;;;;;;5017764;28;20025;-59
2022/10/11 08:29:23;;;;;;;16.20;5.68;;;13.60;99.90;;;;;;5015834;28;20862;-60
2022/10/11 08:31:48;;;;;;;15.55;6.43;;;13.70;99.90;;;;;;5020309;28;20040;-60
2022/10/11 08:34:14;;;;;;;10.77;7.00;;;13.80;99.90;;;;;;5020311;28;20108;-58
2022/10/11 08:36:39;;;;;;;10.75;5.22;;;13.90;99.90;;;;;;5022970;28;20040;-59
2022/10/11 08:39:05;;;;;;;11.98;6.88;;;13.90;99.90;;;;;;5021169;28;20691;-60
2022/10/11 08:41:37;;;;;;;10.77;6.07;;;13.90;99.90;;;;;;5021201;28;20393;-60
2022/10/11 08:44:17;;;;;;;11.57;5.78;;;13.90;99.90;;;;;;5019893;28;20026;-60
2022/10/11 08:46:50;;;;;;;13.10;5.32;;;13.90;99.90;;;;;;5015302;28;20017;-59
2022/10/11 08:49:19;;;;;;;9.57;4.40;;;14.00;99.90;;;;;;5019271;28;20033;-59
2022/10/11 08:51:49;;;;;;;7.10;4.35;;;14.00;99.90;;;;;;5018877;28;20398;-59
2022/10/11 08:54:37;;;;;;;7.53;4.53;;;14.10;99.90;;;;;;5020036;28;20116;-59
2022/10/11 08:57:05;;;;;;;7.53;4.47;;;14.30;99.90;;;;;;5019169;28;20494;-60
2022/10/11 08:59:50;;;;;;;6.50;4.40;;;14.50;99.90;;;;;;5016786;28;20033;-59
2022/10/11 09:02:57;;;;;;;8.27;3.83;;;14.80;99.90;;;;;;5021548;28;20192;-59
2022/10/11 09:05:38;;;;;;;9.23;3.80;;;15.20;99.90;;;;;;5017439;28;20103;-60
2022/10/11 09:08:17;;;;;;;5.85;3.80;;;15.40;99.90;;;;;;5018111;28;20034;-59
2022/10/11 09:11:01;;;;;;;10.35;3.17;;;15.50;99.90;;;;;;5017489;28;20026;-59
2022/10/11 09:14:05;;;;;;;8.20;3.45;;;15.60;99.90;;;;;;5016937;28;20110;-59
2022/10/11 09:17:19;;;;;;;3.50;2.95;;;15.60;99.90;;;;;;5009222;28;20121;-59
2022/10/11 09:19:55;;;;;;;8.32;3.08;;;15.80;99.90;;;;;;5014187;28;20024;-59
2022/10/11 09:22:46;;;;;;;8.55;2.92;;;16.20;99.90;;;;;;5021548;28;20032;-59
2022/10/11 09:25:26;;;;;;;5.30;2.75;;;16.80;99.90;;;;;;5020792;28;20029;-60
2022/10/11 09:28:27;;;;;;;8.40;2.35;;;17.50;99.90;;;;;;5018745;28;20613;-59
2022/10/11 09:30:55;;;;;;;5.97;2.08;;;18.10;99.90;;;;;;5013753;28;20042;-61
2022/10/11 09:33:45;;;;;;;5.22;2.63;;;18.70;99.90;;;;;;5020290;28;20061;-60
2022/10/11 09:36:22;;;;;;;14.38;2.80;;;19.20;99.90;;;;;;5014662;28;20679;-60
2022/10/11 09:38:55;;;;;;;5.15;2.13;;;19.70;99.90;;;;;;5018190;28;20401;-60
2022/10/11 09:41:24;;;;;;;6.53;1.90;;;20.10;98.70;;;;;;5017275;28;20025;-60
2022/10/11 09:43:51;;;;;;;6.30;2.42;;;20.30;97.30;;;;;;5022685;28;20034;-60
2022/10/11 09:46:27;;;;;;;5.60;1.90;;;20.10;93.30;;;;;;5014502;28;20924;-61
2022/10/11 09:48:55;;;;;;;6.57;2.20;;;19.60;99.90;;;;;;5019740;28;20045;-59
2022/10/11 09:51:24;;;;;;;7.63;2.03;;;19.10;99.90;;;;;;5019752;28;20112;-59
2022/10/11 09:53:51;;;;;;;3.55;1.90;;;18.70;99.90;;;;;;5018823;28;20525;-59
2022/10/11 09:56:17;;;;;;;8.02;2.15;;;18.40;99.90;;;;;;5017771;28;20125;-59
2022/10/11 09:58:43;;;;;;;5.10;2.22;;;18.10;99.90;;;;;;5016837;28;20104;-59
2022/10/11 10:01:12;;;;;;;6.28;2.53;;;18.00;99.90;;;;;;5020238;28;20037;-60
2022/10/11 10:03:40;;;;;;;6.95;2.58;;;17.90;99.90;;;;;;5016802;28;20026;-60
2022/10/11 10:06:15;;;;;;;8.02;2.15;;;17.80;99.90;;;;;;5017365;28;20041;-59
2022/10/11 10:08:42;;;;;;;8.18;2.53;;;17.70;99.90;;;;;;5017409;28;20520;-58
2022/10/11 10:11:09;;;;;;;8.55;2.47;;;17.60;99.90;;;;;;5019213;28;20034;-60
2022/10/11 10:13:55;;;;;;;6.00;2.80;;;17.50;99.90;;;;;;5018032;28;20105;-60
2022/10/11 10:16:47;;;;;;;7.97;3.28;;;17.60;99.90;;;;;;5019034;28;20103;-59
2022/10/11 10:19:20;;;;;;;8.30;2.92;;;17.60;99.90;;;;;;5012769;28;20117;-59
2022/10/11 10:21:48;;;;;;;10.35;2.65;;;17.60;99.90;;;;;;5021235;28;20045;-59
2022/10/11 10:24:27;;;;;;;6.07;2.40;;;17.70;99.90;;;;;;5015222;28;20037;-59
2022/10/11 10:27:04;;;;;;;6.95;3.08;;;17.70;99.90;;;;;;5015867;28;20061;-59
2022/10/11 10:29:30;;;;;;;10.48;2.92;;;17.60;99.90;;;;;;5016476;28;20639;-59
2022/10/11 10:31:56;;;;;;;8.82;3.50;;;17.60;99.90;;;;;;5014954;28;20034;-59
2022/10/11 10:34:30;;;;;;;6.97;4.00;;;17.50;99.90;;;;;;5017839;28;20037;-59
2022/10/11 10:37:03;;;;;;;15.38;3.53;;;17.40;99.90;;;;;;5015264;28;20032;-59
2022/10/11 10:39:39;;;;;;;10.77;3.95;;;17.40;99.90;;;;;;5017701;28;20417;-59
2022/10/11 10:42:14;;;;;;;8.15;3.65;;;17.50;99.90;;;;;;5015585;28;20108;-59
2022/10/11 10:44:40;;;;;;;5.38;2.55;;;17.40;99.90;;;;;;5021970;28;20037;-59
2022/10/11 10:47:06;;;;;;;5.63;3.33;;;17.30;99.90;;;;;;5024232;28;20030;-59
2022/10/11 10:50:05;;;;;;;7.95;3.17;;;17.30;99.90;;;;;;5017651;28;20861;-59
2022/10/11 10:52:52;;;;;;;11.02;4.13;;;17.10;99.90;;;;;;5008884;28;20129;-59
2022/10/11 10:55:22;;;;;;;7.35;3.25;;;17.00;99.90;;;;;;5015129;28;20482;-59
2022/10/11 10:58:12;;;;;;;7.25;3.53;;;16.90;99.90;;;;;;5021850;28;20094;-59
2022/10/11 11:00:48;;;;;;;6.68;3.50;;;16.90;99.90;;;;;;5018249;28;20030;-58
2022/10/11 11:03:34;;;;;;;7.97;3.30;;;16.70;99.90;;;;;;5019764;28;20120;-59
2022/10/11 11:06:10;;;;;;;9.43;3.53;;;16.70;99.90;;;;;;5014261;28;20057;-57
2022/10/11 11:08:58;;;;;;;10.23;4.15;;;16.70;99.90;;;;;;5017457;28;20056;-59
2022/10/11 11:11:23;;;;;;;9.85;4.20;;;16.80;99.90;;;;;;5017978;28;20037;-59
2022/10/11 11:13:55;;;;;;;6.90;4.10;;;16.90;99.90;;;;;;5016298;28;20034;-59
2022/10/11 11:16:46;;;;;;;8.75;4.22;;;17.00;99.90;;;;;;5016270;28;20036;-58
2022/10/11 11:19:22;;;;;;;;;;;16.90;99.90;;;;;;5018466;28;20037;-59
2022/10/11 11:22:09;;;;;;;10.90;4.85;;;16.90;99.90;;;;;;5019260;28;19991;-60
2022/10/11 11:25:01;;;;;;;13.77;5.65;;;16.90;99.90;;;;;;5015276;28;20034;-59
2022/10/11 11:27:40;;;;;;;15.68;4.72;;;16.80;99.90;;;;;;5015057;28;20658;-59
2022/10/11 11:30:15;;;;;;;8.38;5.05;;;16.80;99.90;;;;;;5017780;28;20030;-58
2022/10/11 11:33:07;;;;;;;12.32;4.20;;;16.80;99.90;;;;;;5015857;28;20033;-59
2022/10/11 11:35:44;;;;;;;10.00;4.75;;;16.70;99.90;;;;;;5019708;28;20053;-59
2022/10/11 11:38:54;;;;;;;12.15;4.60;;;16.70;99.90;;;;;;5015291;28;20026;-58
2022/10/11 11:41:25;;;;;;;13.10;5.18;;;16.60;99.90;;;;;;5013651;28;20033;-58
2022/10/11 11:43:56;;;;;;;12.27;5.85;;;16.50;99.90;;;;;;5018560;28;20120;-59
2022/10/11 11:46:40;;;;;;;9.25;4.60;;;16.50;99.90;;;;;;5014644;28;20478;-59
2022/10/11 11:49:18;;;;;;;12.38;4.97;;;16.40;99.90;;;;;;5016380;28;20041;-59
2022/10/11 11:51:46;;;;;;;11.88;4.90;;;16.30;99.90;;;;;;5021727;28;20087;-59
2022/10/11 11:54:32;;;;;;;8.02;5.18;;;16.30;99.90;;;;;;5014820;28;20090;-58
2022/10/11 11:57:07;;;;;;;12.73;5.25;;;16.20;99.90;;;;;;5018990;28;20061;-58
2022/10/11 11:59:50;;;;;;;12.55;5.22;;;16.10;99.90;;;;;;5014698;28;20487;-58
2022/10/11 12:02:49;;;;;;;12.05;5.20;;;16.00;99.90;;;;;;5013950;28;20068;-58
2022/10/11 12:05:18;;;;;;;16.80;5.00;;;16.00;99.90;;;;;;5015228;28;20524;-59
2022/10/11 12:07:50;;;;;;;25.02;5.63;;;16.00;99.90;;;;;;5018106;28;20465;-60
2022/10/11 12:10:35;;;;;;;;;;;16.00;99.90;;;;;;5017068;28;20385;-59
2022/10/11 12:13:48;;;;;;;16.80;5.70;;;16.10;99.90;;;;;;5005702;28;20381;-60
2022/10/11 12:16:18;;;;;;;10.80;5.22;;;16.10;99.90;;;;;;4996226;28;20057;-59
2022/10/11 12:18:50;;;;;;;8.65;5.35;;;16.20;99.90;;;;;;5016178;28;20029;-59
2022/10/11 12:21:23;;;;;;;11.10;5.00;;;16.10;99.90;;;;;;5018991;28;20026;-59
2022/10/11 12:23:52;;;;;;;10.00;5.07;;;16.10;99.90;;;;;;5018779;28;20041;-58
2022/10/11 12:26:26;;;;;;;10.13;5.07;;;16.20;99.90;;;;;;5018517;28;20103;-60
2022/10/11 12:29:42;;;;;;;8.65;4.30;;;16.40;99.90;;;;;;5019486;28;20513;-59
2022/10/11 12:32:09;;;;;;;10.15;4.65;;;16.60;99.90;;;;;;4996840;28;20038;-59
2022/10/11 12:34:37;;;;;;;12.25;5.53;;;16.70;99.90;;;;;;5015284;28;20038;-58
2022/10/11 12:37:18;;;;;;;10.73;4.28;;;16.80;99.90;;;;;;5018096;28;20546;-59
2022/10/11 12:39:43;;;;;;;7.13;4.50;;;16.80;99.90;;;;;;5011993;28;20062;-60
2022/10/11 12:42:58;;;;;;;9.18;4.72;;;16.80;99.90;;;;;;5017779;28;20053;-60
2022/10/11 12:45:30;;;;;;;11.32;5.38;;;16.80;99.90;;;;;;5009612;28;20033;-59
2022/10/11 12:48:14;;;;;;;;;;;16.80;99.90;;;;;;5013382;28;20506;-59
2022/10/11 12:50:55;;;;;;;8.95;4.80;;;16.80;99.90;;;;;;5012614;28;19913;-57
2022/10/11 12:53:50;;;;;;;7.65;4.47;;;16.80;99.90;;;;;;5018875;28;20072;-58
2022/10/11 12:56:24;;;;;;;19.08;5.00;;;16.90;99.90;;;;;;5014184;28;20029;-59